createdAt,value
2023-10-11T00:00:41.726Z,12.58
2023-10-11T00:03:29.863Z,12.57
2023-10-11T00:05:57.099Z,12.55
2023-10-11T00:08:27.311Z,12.50
2023-10-11T00:10:56.778Z,12.50
2023-10-11T00:13:34.283Z,12.47
2023-10-11T00:16:08.819Z,12.47
2023-10-11T00:18:38.189Z,12.42
2023-10-11T00:21:17.388Z,12.45
2023-10-11T00:23:52.030Z,12.51
2023-10-11T00:26:19.884Z,12.52
2023-10-11T00:28:46.746Z,12.54
2023-10-11T00:31:21.125Z,12.57
2023-10-11T00:33:48.876Z,12.57
2023-10-11T00:36:27.267Z,12.59
2023-10-11T00:38:53.910Z,12.53
2023-10-11T00:41:22.019Z,12.52
2023-10-11T00:43:55.161Z,12.48
2023-10-11T00:46:48.875Z,12.54
2023-10-11T00:49:15.877Z,12.60
2023-10-11T00:51:48.161Z,12.60
2023-10-11T00:54:17.927Z,12.50
2023-10-11T00:56:46.773Z,12.42
2023-10-11T00:59:17.852Z,12.39
2023-10-11T01:01:46.380Z,12.34
2023-10-11T01:04:17.391Z,12.32
2023-10-11T01:06:44.758Z,12.29
2023-10-11T01:09:27.465Z,12.32
2023-10-11T01:11:54.266Z,12.42
2023-10-11T01:14:21.063Z,12.46
2023-10-11T01:16:47.760Z,12.47
2023-10-11T01:19:18.199Z,12.44
2023-10-11T01:21:53.202Z,12.47
2023-10-11T01:24:20.031Z,12.45
2023-10-11T01:26:46.975Z,12.46
2023-10-11T01:29:13.876Z,12.47
2023-10-11T01:31:40.694Z,12.45
2023-10-11T01:34:07.827Z,12.42
2023-10-11T01:36:35.687Z,12.46
2023-10-11T01:39:04.835Z,12.47
2023-10-11T01:41:31.505Z,12.47
2023-10-11T01:43:58.594Z,12.36
2023-10-11T01:46:27.910Z,12.22
2023-10-11T01:48:56.587Z,12.24
2023-10-11T01:51:30.867Z,12.24
2023-10-11T01:54:01.282Z,12.23
2023-10-11T01:56:29.113Z,12.20
2023-10-11T01:59:02.747Z,12.20
2023-10-11T02:01:39.999Z,12.12
2023-10-11T02:04:21.518Z,12.17
2023-10-11T02:06:50.029Z,12.20
2023-10-11T02:09:21.702Z,12.21
2023-10-11T02:11:53.707Z,12.13
2023-10-11T02:14:21.242Z,12.19
2023-10-11T02:16:47.886Z,12.16
2023-10-11T02:19:17.037Z,12.16
2023-10-11T02:21:46.796Z,12.11
2023-10-11T02:24:16.468Z,12.15
2023-10-11T02:26:50.675Z,12.17
2023-10-11T02:29:21.841Z,12.16
2023-10-11T02:31:59.679Z,12.18
2023-10-11T02:34:26.504Z,12.18
2023-10-11T02:37:04.479Z,12.17
2023-10-11T02:39:34.455Z,12.16
2023-10-11T02:42:01.989Z,12.18
2023-10-11T02:44:28.719Z,12.26
2023-10-11T02:46:55.555Z,12.19
2023-10-11T02:49:22.888Z,12.23
2023-10-11T02:51:54.489Z,12.21
2023-10-11T02:54:22.614Z,12.22
2023-10-11T02:56:49.295Z,12.21
2023-10-11T02:59:26.077Z,12.12
2023-10-11T03:02:00.809Z,12.01
2023-10-11T03:04:41.617Z,11.99
2023-10-11T03:07:24.756Z,11.93
2023-10-11T03:09:52.319Z,11.94
2023-10-11T03:12:32.945Z,12.00
2023-10-11T03:15:07.583Z,12.08
2023-10-11T03:17:41.788Z,12.10
2023-10-11T03:20:28.124Z,12.04
2023-10-11T03:22:54.738Z,11.99
2023-10-11T03:25:21.389Z,11.98
2023-10-11T03:27:50.669Z,12.04
2023-10-11T03:30:18.273Z,12.04
2023-10-11T03:32:45.278Z,12.06
2023-10-11T03:35:17.333Z,12.10
2023-10-11T03:37:58.407Z,12.11
2023-10-11T03:40:36.462Z,12.13
2023-10-11T03:43:15.921Z,12.14
2023-10-11T03:45:50.918Z,12.08
2023-10-11T03:48:19.623Z,12.00
2023-10-11T03:50:49.450Z,11.95
2023-10-11T03:53:17.084Z,11.90
2023-10-11T03:55:47.954Z,11.86
2023-10-11T03:58:38.842Z,11.84
2023-10-11T04:01:18.171Z,11.72
2023-10-11T04:03:45.023Z,11.69
2023-10-11T04:06:15.625Z,11.73
2023-10-11T04:09:04.203Z,11.78
2023-10-11T04:11:56.333Z,11.78
2023-10-11T04:14:40.970Z,11.77
2023-10-11T04:17:18.426Z,11.68
2023-10-11T04:19:45.193Z,11.63
2023-10-11T04:22:17.427Z,11.66
2023-10-11T04:24:46.669Z,11.62
2023-10-11T04:27:22.390Z,11.56
2023-10-11T04:29:51.674Z,11.59
2023-10-11T04:32:40.537Z,11.62
2023-10-11T04:35:23.443Z,11.59
2023-10-11T04:38:02.600Z,11.60
2023-10-11T04:40:50.377Z,11.51
2023-10-11T04:43:25.655Z,11.49
2023-10-11T04:45:57.442Z,11.43
2023-10-11T04:48:38.612Z,11.43
2023-10-11T04:51:22.627Z,11.45
2023-10-11T04:53:52.759Z,11.43
2023-10-11T04:56:38.761Z,11.44
2023-10-11T04:59:30.878Z,11.40
2023-10-11T05:02:03.832Z,11.43
2023-10-11T05:04:34.755Z,11.38
2023-10-11T05:07:09.399Z,11.30
2023-10-11T05:09:40.877Z,11.28
2023-10-11T05:12:14.087Z,11.21
2023-10-11T05:14:42.199Z,11.17
2023-10-11T05:17:16.562Z,11.13
2023-10-11T05:20:16.781Z,11.05
2023-10-11T05:22:43.402Z,11.07
2023-10-11T05:25:34.300Z,11.08
2023-10-11T05:28:20.110Z,11.07
2023-10-11T05:31:02.198Z,11.11
2023-10-11T05:33:52.476Z,11.07
2023-10-11T05:36:40.233Z,11.05
2023-10-11T05:39:25.590Z,11.04
2023-10-11T05:42:10.823Z,11.05
2023-10-11T05:44:56.114Z,11.08
2023-10-11T05:47:41.418Z,11.09
2023-10-11T05:50:27.334Z,11.07
2023-10-11T05:52:56.958Z,11.00
2023-10-11T05:55:24.212Z,11.04
2023-10-11T05:57:52.091Z,11.01
2023-10-11T06:00:28.172Z,11.00
2023-10-11T06:02:56.306Z,11.08
2023-10-11T06:05:26.021Z,11.11
2023-10-11T06:08:04.927Z,11.20
2023-10-11T06:10:42.697Z,11.25
2023-10-11T06:13:14.850Z,11.37
2023-10-11T06:15:46.614Z,11.46
2023-10-11T06:18:33.278Z,11.48
2023-10-11T06:21:06.517Z,11.54
2023-10-11T06:23:34.636Z,11.64
2023-10-11T06:26:21.245Z,11.74
2023-10-11T06:28:48.877Z,11.80
2023-10-11T06:31:16.034Z,11.82
2023-10-11T06:33:45.982Z,11.91
2023-10-11T06:36:15.904Z,11.88
2023-10-11T06:38:43.186Z,11.93
2023-10-11T06:41:36.294Z,11.99
2023-10-11T06:44:02.990Z,11.94
2023-10-11T06:46:31.374Z,12.01
2023-10-11T06:48:59.926Z,12.05
2023-10-11T06:51:26.650Z,12.05
2023-10-11T06:53:58.330Z,12.11
2023-10-11T06:56:27.155Z,12.12
2023-10-11T06:58:53.930Z,12.21
2023-10-11T07:01:20.596Z,12.27
2023-10-11T07:03:49.081Z,12.35
2023-10-11T07:06:18.020Z,12.50
2023-10-11T07:08:50.869Z,12.58
2023-10-11T07:11:51.419Z,12.63
2023-10-11T07:14:19.577Z,12.70
2023-10-11T07:16:50.611Z,12.72
2023-10-11T07:19:17.781Z,12.75
2023-10-11T07:21:47.622Z,12.77
2023-10-11T07:24:21.756Z,12.80
2023-10-11T07:26:49.626Z,12.92
2023-10-11T07:29:18.461Z,12.93
2023-10-11T07:31:51.505Z,13.01
2023-10-11T07:34:20.463Z,13.04
2023-10-11T07:36:51.139Z,13.06
2023-10-11T07:39:26.137Z,13.18
2023-10-11T07:42:06.663Z,13.25
2023-10-11T07:44:38.100Z,13.31
2023-10-11T07:47:16.073Z,13.36
2023-10-11T07:49:45.903Z,13.43
2023-10-11T07:52:20.647Z,13.55
2023-10-11T07:54:49.308Z,13.57
2023-10-11T07:57:16.920Z,13.56
2023-10-11T07:59:45.534Z,13.58
2023-10-11T08:02:28.526Z,13.62
2023-10-11T08:04:55.482Z,13.71
2023-10-11T08:07:23.908Z,13.75
2023-10-11T08:09:54.355Z,13.85
2023-10-11T08:12:25.063Z,13.89
2023-10-11T08:14:54.947Z,13.94
2023-10-11T08:17:22.774Z,14.05
2023-10-11T08:19:55.255Z,14.07
2023-10-11T08:22:24.120Z,14.15
2023-10-11T08:24:53.029Z,14.23
2023-10-11T08:27:29.431Z,14.31
2023-10-11T08:30:19.043Z,14.43
2023-10-11T08:32:48.238Z,14.51
2023-10-11T08:35:27.570Z,14.59
2023-10-11T08:37:55.616Z,14.61
2023-10-11T08:40:30.761Z,14.69
2023-10-11T08:43:03.047Z,14.71
2023-10-11T08:45:34.735Z,14.88
2023-10-11T08:48:02.638Z,14.97
2023-10-11T08:50:36.832Z,15.09
2023-10-11T08:53:10.743Z,15.03
2023-10-11T08:55:41.889Z,15.02
2023-10-11T08:58:15.976Z,15.14
2023-10-11T09:00:48.970Z,15.11
2023-10-11T09:03:20.256Z,15.20
2023-10-11T09:05:48.667Z,15.30
2023-10-11T09:08:23.340Z,15.34
2023-10-11T09:10:52.532Z,15.45
2023-10-11T09:13:27.682Z,15.53
2023-10-11T09:15:55.785Z,15.57
2023-10-11T09:18:26.305Z,15.69
2023-10-11T09:21:09.788Z,15.71
2023-10-11T09:23:36.658Z,15.74
2023-10-11T09:26:04.139Z,15.73
2023-10-11T09:28:34.971Z,15.94
2023-10-11T09:31:11.240Z,15.92
2023-10-11T09:33:42.581Z,15.98
2023-10-11T09:36:10.477Z,16.04
2023-10-11T09:38:43.053Z,16.11
2023-10-11T09:41:09.941Z,16.15
2023-10-11T09:43:47.087Z,16.24
2023-10-11T09:46:15.220Z,16.41
2023-10-11T09:48:42.962Z,16.48
2023-10-11T09:51:15.278Z,16.52
2023-10-11T09:53:43.454Z,16.55
2023-10-11T09:56:37.544Z,16.58
2023-10-11T09:59:48.212Z,16.64
2023-10-11T10:02:24.419Z,16.78
2023-10-11T10:04:53.967Z,16.79
2023-10-11T10:07:44.893Z,16.86
2023-10-11T10:10:14.720Z,16.93
2023-10-11T10:12:56.569Z,16.97
2023-10-11T10:15:24.740Z,17.06
2023-10-11T10:18:06.759Z,17.13
2023-10-11T10:20:43.203Z,17.13
2023-10-11T10:23:15.894Z,17.20
2023-10-11T10:25:49.708Z,17.21
2023-10-11T10:28:36.078Z,17.26
2023-10-11T10:31:21.275Z,17.32
2023-10-11T10:33:52.872Z,17.36
2023-10-11T10:36:22.193Z,17.42
2023-10-11T10:39:24.336Z,17.47
2023-10-11T10:42:13.316Z,17.54
2023-10-11T10:44:52.046Z,17.62
2023-10-11T10:47:22.836Z,17.76
2023-10-11T10:49:52.338Z,17.84
2023-10-11T10:52:20.208Z,17.89
2023-10-11T10:55:03.555Z,17.93
2023-10-11T10:57:34.774Z,18.08
2023-10-11T11:00:21.760Z,18.14
2023-10-11T11:02:48.990Z,18.29
2023-10-11T11:05:15.894Z,18.33
2023-10-11T11:07:48.918Z,18.31
2023-10-11T11:10:20.999Z,18.46
2023-10-11T11:12:49.184Z,18.56
2023-10-11T11:15:22.210Z,18.64
2023-10-11T11:17:51.444Z,18.67
2023-10-11T11:20:22.661Z,18.68
2023-10-11T11:22:53.657Z,18.69
2023-10-11T11:25:26.323Z,18.71
2023-10-11T11:28:26.408Z,18.81
2023-10-11T11:30:53.134Z,18.92
2023-10-11T11:33:31.215Z,19.03
2023-10-11T11:35:58.020Z,19.15
2023-10-11T11:38:24.837Z,19.17
2023-10-11T11:40:52.662Z,19.18
2023-10-11T11:43:21.693Z,19.29
2023-10-11T11:45:52.648Z,19.35
2023-10-11T11:48:25.244Z,19.35
2023-10-11T11:50:52.189Z,19.38
2023-10-11T11:53:20.086Z,19.41
2023-10-11T11:55:47.688Z,19.42
2023-10-11T11:58:17.288Z,19.51
2023-10-11T12:00:49.770Z,19.64
2023-10-11T12:03:16.547Z,19.65
2023-10-11T12:05:43.367Z,19.61
2023-10-11T12:08:19.692Z,19.58
2023-10-11T12:10:51.245Z,19.61
2023-10-11T12:13:27.511Z,19.75
2023-10-11T12:15:58.789Z,19.75
2023-10-11T12:18:33.766Z,19.84
2023-10-11T12:21:12.209Z,19.88
2023-10-11T12:23:46.955Z,19.97
2023-10-11T12:26:21.744Z,19.97
2023-10-11T12:28:49.558Z,20.01
2023-10-11T12:31:18.264Z,20.05
2023-10-11T12:33:45.439Z,20.14
2023-10-11T12:36:12.848Z,20.16
2023-10-11T12:38:40.907Z,20.16
2023-10-11T12:41:08.690Z,20.12
2023-10-11T12:43:35.444Z,20.11
2023-10-11T12:46:02.355Z,20.15
2023-10-11T12:48:29.389Z,20.22
2023-10-11T12:50:59.246Z,20.21
2023-10-11T12:53:30.013Z,20.24
2023-10-11T12:55:56.822Z,20.29
2023-10-11T12:58:29.005Z,20.27
2023-10-11T13:01:06.728Z,20.34
2023-10-11T13:03:39.421Z,20.32
2023-10-11T13:06:10.896Z,20.38
2023-10-11T13:08:40.990Z,20.41
2023-10-11T13:11:13.037Z,20.41
2023-10-11T13:13:42.028Z,20.44
2023-10-11T13:16:09.528Z,20.40
2023-10-11T13:18:41.985Z,20.44
2023-10-11T13:21:13.180Z,20.39
2023-10-11T13:23:44.893Z,20.41
2023-10-11T13:26:12.181Z,20.40
2023-10-11T13:28:42.480Z,20.37
2023-10-11T13:31:10.890Z,20.35
2023-10-11T13:33:38.060Z,20.42
2023-10-11T13:36:09.817Z,20.45
2023-10-11T13:38:38.556Z,20.67
2023-10-11T13:41:05.734Z,20.63
2023-10-11T13:43:33.385Z,20.58
2023-10-11T13:46:07.560Z,20.44
2023-10-11T13:48:38.785Z,20.38
2023-10-11T13:51:08.447Z,20.31
2023-10-11T13:53:45.495Z,20.23
2023-10-11T13:56:25.315Z,20.18
2023-10-11T13:58:54.247Z,20.17
2023-10-11T14:01:36.950Z,20.11
2023-10-11T14:04:16.637Z,20.13
2023-10-11T14:07:03.763Z,20.16
2023-10-11T14:09:33.652Z,20.17
2023-10-11T14:12:00.406Z,20.14
2023-10-11T14:14:31.154Z,20.11
2023-10-11T14:16:57.938Z,20.10
2023-10-11T14:19:26.164Z,20.08
2023-10-11T14:21:53.411Z,20.04
2023-10-11T14:24:20.570Z,19.97
2023-10-11T14:26:48.585Z,20.02
2023-10-11T14:29:17.110Z,20.01
2023-10-11T14:31:44.191Z,19.92
2023-10-11T14:34:11.893Z,19.89
2023-10-11T14:36:42.109Z,19.89
2023-10-11T14:39:19.313Z,19.86
2023-10-11T14:41:47.986Z,19.86
2023-10-11T14:44:14.945Z,19.88
2023-10-11T14:46:42.485Z,19.85
2023-10-11T14:49:11.785Z,19.81
2023-10-11T14:51:40.803Z,19.75
2023-10-11T14:54:07.568Z,19.71
2023-10-11T14:56:35.136Z,19.68
2023-10-11T14:59:02.616Z,19.63
2023-10-11T15:01:33.066Z,19.63
2023-10-11T15:04:01.916Z,19.63
2023-10-11T15:06:28.724Z,19.63
2023-10-11T15:08:55.386Z,19.76
2023-10-11T15:11:22.204Z,19.77
2023-10-11T15:13:48.848Z,19.76
2023-10-11T15:16:15.712Z,19.75
2023-10-11T15:18:42.558Z,19.68
2023-10-11T15:21:09.482Z,19.66
2023-10-11T15:23:36.112Z,19.66
2023-10-11T15:26:04.848Z,19.60
2023-10-11T15:28:32.026Z,19.52
2023-10-11T15:31:01.415Z,19.53
2023-10-11T15:33:28.420Z,19.57
2023-10-11T15:35:59.597Z,19.56
2023-10-11T15:38:29.609Z,19.50
2023-10-11T15:41:05.864Z,19.44
2023-10-11T15:43:37.150Z,19.37
2023-10-11T15:46:04.653Z,19.32
2023-10-11T15:48:32.596Z,19.22
2023-10-11T15:51:10.680Z,19.14
2023-10-11T15:53:38.518Z,19.06
2023-10-11T15:56:07.223Z,18.98
2023-10-11T15:58:34.691Z,18.89
2023-10-11T16:01:07.557Z,18.82
2023-10-11T16:03:36.341Z,18.73
2023-10-11T16:06:03.572Z,18.65
2023-10-11T16:08:31.247Z,18.59
2023-10-11T16:11:11.151Z,18.52
2023-10-11T16:13:38.617Z,18.48
2023-10-11T16:16:08.649Z,18.43
2023-10-11T16:18:37.955Z,18.36
2023-10-11T16:21:04.833Z,18.27
2023-10-11T16:23:34.876Z,18.19
2023-10-11T16:26:02.350Z,18.11
2023-10-11T16:28:30.528Z,18.03
2023-10-11T16:30:59.260Z,17.93
2023-10-11T16:33:27.669Z,17.85
2023-10-11T16:35:54.645Z,17.77
2023-10-11T16:38:21.423Z,17.71
2023-10-11T16:40:48.217Z,17.67
2023-10-11T16:43:14.862Z,17.62
2023-10-11T16:45:42.257Z,17.52
2023-10-11T16:48:11.686Z,17.46
2023-10-11T16:50:39.237Z,17.41
2023-10-11T16:53:09.231Z,17.39
2023-10-11T16:55:37.177Z,17.33
2023-10-11T16:58:04.671Z,17.27
2023-10-11T17:00:34.941Z,17.21
2023-10-11T17:03:03.057Z,17.14
2023-10-11T17:05:35.299Z,17.09
2023-10-11T17:08:02.420Z,17.04
2023-10-11T17:10:29.051Z,16.96
2023-10-11T17:12:56.382Z,16.92
2023-10-11T17:15:25.422Z,16.90
2023-10-11T17:17:54.083Z,16.85
2023-10-11T17:20:22.559Z,16.83
2023-10-11T17:22:51.566Z,16.81
2023-10-11T17:25:22.791Z,16.80
2023-10-11T17:27:50.502Z,16.79
2023-10-11T17:30:19.344Z,16.72
2023-10-11T17:32:47.738Z,16.66
2023-10-11T17:35:16.806Z,16.58
2023-10-11T17:37:47.582Z,16.40
2023-10-11T17:40:16.735Z,16.28
2023-10-11T17:42:43.416Z,16.22
2023-10-11T17:45:10.718Z,16.17
2023-10-11T17:47:37.869Z,16.13
2023-10-11T17:50:07.405Z,16.10
2023-10-11T17:52:35.001Z,16.05
2023-10-11T17:55:08.966Z,16.04
2023-10-11T17:57:41.865Z,16.01
2023-10-11T18:00:19.670Z,15.97
2023-10-11T18:02:48.330Z,15.91
2023-10-11T18:05:16.229Z,15.91
2023-10-11T18:07:53.539Z,15.87
2023-10-11T18:10:21.855Z,15.83
2023-10-11T18:12:49.729Z,15.72
2023-10-11T18:15:17.705Z,15.74
2023-10-11T18:17:47.676Z,15.62
2023-10-11T18:20:17.464Z,15.63
2023-10-11T18:22:45.541Z,15.60
2023-10-11T18:25:17.532Z,15.55
2023-10-11T18:27:45.696Z,15.54
2023-10-11T18:30:13.578Z,15.51
2023-10-11T18:32:41.757Z,15.46
2023-10-11T18:35:09.100Z,15.46
2023-10-11T18:37:36.274Z,15.46
2023-10-11T18:40:19.483Z,15.40
2023-10-11T18:42:56.063Z,15.39
2023-10-11T18:45:23.739Z,15.35
2023-10-11T18:47:55.111Z,15.30
2023-10-11T18:50:22.985Z,15.29
2023-10-11T18:52:54.315Z,15.26
2023-10-11T18:55:22.916Z,15.26
2023-10-11T18:57:50.312Z,15.18
2023-10-11T19:00:19.102Z,15.19
2023-10-11T19:02:50.766Z,15.19
2023-10-11T19:05:20.975Z,15.16
2023-10-11T19:07:51.588Z,15.14
2023-10-11T19:10:20.052Z,15.10
2023-10-11T19:12:51.483Z,15.04
2023-10-11T19:15:19.039Z,14.98
2023-10-11T19:17:51.945Z,14.97
2023-10-11T19:20:20.146Z,14.98
2023-10-11T19:22:49.399Z,14.96
2023-10-11T19:25:17.677Z,14.85
2023-10-11T19:27:45.268Z,14.79
2023-10-11T19:30:17.973Z,14.70
2023-10-11T19:32:45.461Z,14.67
2023-10-11T19:35:15.808Z,14.63
2023-10-11T19:37:44.179Z,14.61
2023-10-11T19:40:16.889Z,14.64
2023-10-11T19:42:45.830Z,14.63
2023-10-11T19:45:19.953Z,14.61
2023-10-11T19:47:48.294Z,14.57
2023-10-11T19:50:16.466Z,14.56
2023-10-11T19:52:49.377Z,14.50
2023-10-11T19:55:19.116Z,14.52
2023-10-11T19:57:52.928Z,14.53
2023-10-11T20:00:21.920Z,14.56
2023-10-11T20:02:53.090Z,14.53
2023-10-11T20:05:20.565Z,14.50
2023-10-11T20:07:50.722Z,14.50
2023-10-11T20:10:17.920Z,14.49
2023-10-11T20:12:46.858Z,14.41
2023-10-11T20:15:14.786Z,14.40
2023-10-11T20:17:45.915Z,14.39
2023-10-11T20:20:13.864Z,14.35
2023-10-11T20:22:41.651Z,14.33
2023-10-11T20:25:12.042Z,14.29
2023-10-11T20:27:40.696Z,14.29
2023-10-11T20:30:08.848Z,14.31
2023-10-11T20:32:36.724Z,14.28
2023-10-11T20:35:09.973Z,14.26
2023-10-11T20:37:37.237Z,14.28
2023-10-11T20:40:14.517Z,14.26
2023-10-11T20:42:43.613Z,14.21
2023-10-11T20:45:16.522Z,14.16
2023-10-11T20:47:43.967Z,14.11
2023-10-11T20:50:18.979Z,14.07
2023-10-11T20:52:52.592Z,14.06
2023-10-11T20:55:24.183Z,14.01
2023-10-11T20:58:15.754Z,13.96
2023-10-11T21:00:45.025Z,13.93
2023-10-11T21:03:13.727Z,13.96
2023-10-11T21:05:46.412Z,13.88
2023-10-11T21:08:14.468Z,13.83
2023-10-11T21:10:47.106Z,13.78
2023-10-11T21:13:19.712Z,13.79
2023-10-11T21:15:48.426Z,13.69
2023-10-11T21:18:16.392Z,13.72
2023-10-11T21:20:46.033Z,13.72
2023-10-11T21:23:17.074Z,13.70
2023-10-11T21:25:48.102Z,13.63
2023-10-11T21:28:17.826Z,13.55
2023-10-11T21:30:45.179Z,13.55
2023-10-11T21:33:15.438Z,13.54
2023-10-11T21:35:45.609Z,13.52
2023-10-11T21:38:12.505Z,13.45
2023-10-11T21:40:41.526Z,13.39
2023-10-11T21:43:12.494Z,13.26
2023-10-11T21:45:39.922Z,13.27
2023-10-11T21:48:07.839Z,13.15
2023-10-11T21:50:34.817Z,13.07
2023-10-11T21:53:01.502Z,13.12
2023-10-11T21:55:28.465Z,13.13
2023-10-11T21:57:58.577Z,13.16
2023-10-11T22:00:46.540Z,13.16
2023-10-11T22:03:21.411Z,13.21
2023-10-11T22:05:51.574Z,13.26
2023-10-11T22:08:23.415Z,13.26
2023-10-11T22:10:52.476Z,13.21
2023-10-11T22:13:21.654Z,13.20
2023-10-11T22:15:49.445Z,13.02
2023-10-11T22:18:19.678Z,13.05
2023-10-11T22:20:46.443Z,13.10
2023-10-11T22:23:13.550Z,13.20
2023-10-11T22:25:42.338Z,13.23
2023-10-11T22:28:09.536Z,13.20
2023-10-11T22:30:41.467Z,13.15
2023-10-11T22:33:11.329Z,13.24
2023-10-11T22:35:39.582Z,13.29
2023-10-11T22:38:08.106Z,13.30
2023-10-11T22:40:38.255Z,13.26
2023-10-11T22:43:17.131Z,13.24
2023-10-11T22:45:51.552Z,13.12
2023-10-11T22:48:20.727Z,13.11
2023-10-11T22:50:47.629Z,13.04
2023-10-11T22:53:14.817Z,13.00
2023-10-11T22:55:42.562Z,13.00
2023-10-11T22:58:09.405Z,13.07
2023-10-11T23:00:36.827Z,13.07
2023-10-11T23:03:03.960Z,13.08
2023-10-11T23:05:33.977Z,13.04
2023-10-11T23:08:00.676Z,13.06
2023-10-11T23:10:28.277Z,13.03
2023-10-11T23:12:57.930Z,13.05
2023-10-11T23:15:29.812Z,13.02
2023-10-11T23:17:58.630Z,12.97
2023-10-11T23:20:39.158Z,12.91
2023-10-11T23:23:30.609Z,12.88
2023-10-11T23:26:06.056Z,12.83
2023-10-11T23:28:40.214Z,12.79
2023-10-11T23:31:11.994Z,12.80
2023-10-11T23:33:50.209Z,12.75
2023-10-11T23:36:24.442Z,12.68
2023-10-11T23:39:01.401Z,12.68
2023-10-11T23:41:45.883Z,12.70
2023-10-11T23:44:21.262Z,12.67
2023-10-11T23:47:11.148Z,12.64
2023-10-11T23:49:42.777Z,12.57
2023-10-11T23:52:14.645Z,12.57
2023-10-11T23:54:43.162Z,12.53
2023-10-11T23:57:23.582Z,12.47
2023-10-11T23:59:50.856Z,12.50
